createdAt,value
2023-02-27T00:00:17.267Z,100237.94
2023-02-27T00:03:20.583Z,100246.56
2023-02-27T00:06:24.371Z,100239.00
2023-02-27T00:09:27.889Z,100246.94
2023-02-27T00:12:31.989Z,100261.41
2023-02-27T00:15:35.616Z,100260.47
2023-02-27T00:18:37.952Z,100263.19
2023-02-27T00:21:41.439Z,100270.22
2023-02-27T00:24:47.067Z,100269.41
2023-02-27T00:27:51.032Z,100270.97
2023-02-27T00:30:55.359Z,100271.03
2023-02-27T00:33:58.302Z,100276.31
2023-02-27T00:37:01.198Z,100285.16
2023-02-27T00:40:09.303Z,100285.19
2023-02-27T00:43:16.523Z,100288.75
2023-02-27T00:46:20.396Z,100287.31
2023-02-27T00:49:25.382Z,100288.09
2023-02-27T00:52:29.100Z,100291.69
2023-02-27T00:55:34.121Z,100293.50
2023-02-27T00:58:41.050Z,100298.66
2023-02-27T01:01:46.597Z,100300.50
2023-02-27T01:04:49.434Z,100305.81
2023-02-27T01:07:52.890Z,100307.56
2023-02-27T01:10:56.222Z,100311.13
2023-02-27T01:14:07.650Z,100311.06
2023-02-27T01:17:16.796Z,100308.75
2023-02-27T01:20:27.890Z,100308.69
2023-02-27T01:23:32.666Z,100316.38
2023-02-27T01:26:41.676Z,100305.25
2023-02-27T01:30:00.896Z,100310.31
2023-02-27T01:33:04.319Z,100310.19
2023-02-27T01:36:13.449Z,100313.75
2023-02-27T01:39:18.696Z,100306.84
2023-02-27T01:42:35.086Z,100311.03
2023-02-27T01:45:46.947Z,100313.41
2023-02-27T01:48:50.774Z,100306.47
2023-02-27T01:52:06.433Z,100317.59
2023-02-27T01:55:13.457Z,100309.69
2023-02-27T01:58:21.282Z,100313.09
2023-02-27T02:01:27.997Z,100315.63
2023-02-27T02:04:40.148Z,100315.50
2023-02-27T02:07:50.612Z,100329.22
2023-02-27T02:11:06.290Z,100324.84
2023-02-27T02:14:19.218Z,100336.88
2023-02-27T02:17:27.122Z,100342.75
2023-02-27T02:21:00.208Z,100352.84
2023-02-27T02:24:18.773Z,100358.72
2023-02-27T02:27:28.108Z,100354.63
2023-02-27T02:30:37.122Z,100360.66
2023-02-27T02:34:04.073Z,100360.66
2023-02-27T02:37:41.042Z,100375.03
2023-02-27T02:41:09.357Z,100365.69
2023-02-27T02:44:27.905Z,100365.69
2023-02-27T02:47:34.401Z,100365.72
2023-02-27T02:50:43.314Z,100369.09
2023-02-27T02:54:00.118Z,100371.66
2023-02-27T02:57:17.841Z,100369.94
2023-02-27T03:00:25.114Z,100369.22
2023-02-27T03:03:28.817Z,100375.97
2023-02-27T03:06:38.795Z,100377.62
2023-02-27T03:09:54.673Z,100382.75
2023-02-27T03:13:00.936Z,100382.78
2023-02-27T03:16:14.577Z,100387.09
2023-02-27T03:19:42.255Z,100393.06
2023-02-27T03:22:49.662Z,100394.59
2023-02-27T03:26:03.679Z,100391.41
2023-02-27T03:29:23.725Z,100392.09
2023-02-27T03:32:37.335Z,100395.50
2023-02-27T03:35:58.444Z,100402.28
2023-02-27T03:39:14.206Z,100404.13
2023-02-27T03:42:35.119Z,100408.28
2023-02-27T03:45:45.675Z,100415.03
2023-02-27T03:48:48.566Z,100418.50
2023-02-27T03:51:58.791Z,100418.34
2023-02-27T03:55:13.704Z,100421.78
2023-02-27T03:58:22.617Z,100425.53
2023-02-27T04:01:27.073Z,100425.28
2023-02-27T04:04:39.566Z,100422.66
2023-02-27T04:07:45.804Z,100428.78
2023-02-27T04:10:52.612Z,100426.00
2023-02-27T04:14:03.685Z,100432.94
2023-02-27T04:17:16.510Z,100433.97
2023-02-27T04:20:41.780Z,100436.34
2023-02-27T04:24:07.135Z,100438.22
2023-02-27T04:27:10.615Z,100436.34
2023-02-27T04:30:31.318Z,100440.63
2023-02-27T04:33:47.758Z,100443.28
2023-02-27T04:37:12.416Z,100449.38
2023-02-27T04:40:38.855Z,100447.53
2023-02-27T04:43:43.724Z,100450.25
2023-02-27T04:46:49.098Z,100456.19
2023-02-27T04:50:00.929Z,100461.13
2023-02-27T04:53:08.628Z,100456.09
2023-02-27T04:56:18.894Z,100456.28
2023-02-27T04:59:49.109Z,100458.97
2023-02-27T05:03:27.151Z,100464.94
2023-02-27T05:06:36.572Z,100461.69
2023-02-27T05:09:54.407Z,100466.09
2023-02-27T05:13:07.542Z,100473.03
2023-02-27T05:16:21.007Z,100473.12
2023-02-27T05:19:23.557Z,100483.47
2023-02-27T05:22:52.977Z,100496.06
2023-02-27T05:26:07.607Z,100490.91
2023-02-27T05:29:16.967Z,100497.69
2023-02-27T05:32:21.093Z,100495.84
2023-02-27T05:35:55.781Z,100507.72
2023-02-27T05:39:06.554Z,100505.19
2023-02-27T05:42:21.844Z,100509.34
2023-02-27T05:45:40.113Z,100511.03
2023-02-27T05:48:49.353Z,100517.88
2023-02-27T05:52:00.120Z,100518.84
2023-02-27T05:55:07.601Z,100530.12
2023-02-27T05:58:20.845Z,100530.88
2023-02-27T06:01:31.871Z,100534.31
2023-02-27T06:04:40.728Z,100534.31
2023-02-27T06:07:44.316Z,100548.66
2023-02-27T06:10:52.222Z,100550.31
2023-02-27T06:14:00.647Z,100549.34
2023-02-27T06:17:03.898Z,100563.16
2023-02-27T06:20:16.448Z,100561.59
2023-02-27T06:23:24.967Z,100563.97
2023-02-27T06:29:51.690Z,100582.63
2023-02-27T06:44:14.091Z,100620.75
2023-02-27T06:58:45.844Z,100639.31
2023-02-27T07:02:02.041Z,100647.47
2023-02-27T07:05:51.423Z,100645.75
2023-02-27T07:09:15.638Z,100643.25
2023-02-27T07:12:20.548Z,100652.59
2023-02-27T07:15:28.254Z,100652.78
2023-02-27T07:18:54.097Z,100658.59
2023-02-27T07:22:43.577Z,100653.91
2023-02-27T07:25:48.689Z,100660.00
2023-02-27T07:29:11.845Z,100666.19
2023-02-27T07:32:17.116Z,100661.06
2023-02-27T07:35:23.009Z,100663.84
2023-02-27T07:38:25.355Z,100670.63
2023-02-27T07:41:36.920Z,100675.06
2023-02-27T07:44:41.186Z,100670.00
2023-02-27T07:47:54.418Z,100674.63
2023-02-27T07:51:07.623Z,100689.53
2023-02-27T07:54:19.087Z,100680.44
2023-02-27T07:57:25.676Z,100684.63
2023-02-27T08:00:48.530Z,100685.28
2023-02-27T08:04:03.094Z,100696.03
2023-02-27T08:07:06.981Z,100701.31
2023-02-27T08:10:09.487Z,100698.25
2023-02-27T08:13:35.941Z,100701.75
2023-02-27T08:16:46.409Z,100698.75
2023-02-27T08:19:55.092Z,100708.81
2023-02-27T08:23:06.621Z,100721.06
2023-02-27T08:26:11.853Z,100713.00
2023-02-27T08:29:21.988Z,100714.72
2023-02-27T08:32:47.852Z,100719.47
2023-02-27T08:36:01.881Z,100731.84
2023-02-27T08:39:20.354Z,100729.16
2023-02-27T08:42:24.213Z,100746.47
2023-02-27T08:45:56.777Z,100747.94
2023-02-27T08:48:59.305Z,100751.47
2023-02-27T08:52:10.798Z,100765.06
2023-02-27T08:55:15.142Z,100760.72
2023-02-27T08:58:19.121Z,100768.31
2023-02-27T09:01:36.131Z,100769.75
2023-02-27T09:04:58.852Z,100770.78
2023-02-27T09:08:05.372Z,100763.66
2023-02-27T09:11:10.809Z,100767.12
2023-02-27T09:14:22.416Z,100769.31
2023-02-27T09:17:28.185Z,100780.50
2023-02-27T09:20:48.917Z,100778.91
2023-02-27T09:24:20.292Z,100779.41
2023-02-27T09:27:30.075Z,100791.44
2023-02-27T09:31:02.341Z,100784.78
2023-02-27T09:34:26.455Z,100780.91
2023-02-27T09:37:34.946Z,100774.50
2023-02-27T09:40:47.067Z,100784.78
2023-02-27T09:44:04.780Z,100782.19
2023-02-27T09:50:43.049Z,100786.94
2023-02-27T09:53:50.418Z,100780.78
2023-02-27T09:56:56.249Z,100784.69
2023-02-27T10:00:03.048Z,100792.87
2023-02-27T10:03:26.847Z,100790.69
2023-02-27T10:06:49.525Z,100794.56
2023-02-27T10:10:02.331Z,100794.91
2023-02-27T10:13:17.509Z,100785.34
2023-02-27T10:16:23.016Z,100791.97
2023-02-27T10:19:35.792Z,100795.84
2023-02-27T10:22:43.161Z,100795.59
2023-02-27T10:25:49.020Z,100798.38
2023-02-27T10:28:53.665Z,100792.09
2023-02-27T10:32:07.538Z,100790.75
2023-02-27T10:35:30.692Z,100798.12
2023-02-27T10:38:35.986Z,100792.91
2023-02-27T10:41:41.675Z,100795.47
2023-02-27T10:44:45.664Z,100793.63
2023-02-27T10:47:49.138Z,100791.44
2023-02-27T10:50:52.726Z,100785.72
2023-02-27T10:54:15.262Z,100795.31
2023-02-27T10:57:40.930Z,100792.28
2023-02-27T11:00:48.693Z,100791.41
2023-02-27T11:03:57.684Z,100790.47
2023-02-27T11:07:03.419Z,100792.41
2023-02-27T11:10:08.753Z,100803.25
2023-02-27T11:13:21.912Z,100791.50
2023-02-27T11:16:25.380Z,100787.50
2023-02-27T11:19:36.717Z,100789.53
2023-02-27T11:22:43.073Z,100797.16
2023-02-27T11:25:47.142Z,100796.19
2023-02-27T11:29:06.224Z,100800.66
2023-02-27T11:32:16.363Z,100802.75
2023-02-27T11:35:25.162Z,100799.25
2023-02-27T11:38:30.034Z,100803.19
2023-02-27T11:41:37.370Z,100808.41
2023-02-27T11:44:51.589Z,100801.00
2023-02-27T11:48:01.449Z,100810.28
2023-02-27T11:51:15.178Z,100803.41
2023-02-27T11:54:18.259Z,100803.56
2023-02-27T11:57:23.117Z,100798.12
2023-02-27T12:00:39.603Z,100803.91
2023-02-27T12:03:54.003Z,100796.53
2023-02-27T12:07:05.254Z,100794.34
2023-02-27T12:10:15.297Z,100793.69
2023-02-27T12:13:24.647Z,100797.69
2023-02-27T12:16:55.059Z,100798.94
2023-02-27T12:20:01.659Z,100798.72
2023-02-27T12:23:10.355Z,100806.28
2023-02-27T12:26:32.800Z,100803.97
2023-02-27T12:29:39.476Z,100801.16
2023-02-27T12:32:43.501Z,100819.78
2023-02-27T12:35:50.487Z,100814.06
2023-02-27T12:38:54.992Z,100823.06
2023-02-27T12:42:09.468Z,100825.97
2023-02-27T12:45:29.076Z,100827.66
2023-02-27T12:48:31.977Z,100824.00
2023-02-27T12:51:48.728Z,100823.84
2023-02-27T12:55:02.795Z,100823.50
2023-02-27T12:58:15.683Z,100829.53
2023-02-27T13:01:42.658Z,100827.31
2023-02-27T13:05:09.508Z,100830.78
2023-02-27T13:08:29.994Z,100827.56
2023-02-27T13:11:33.300Z,100833.19
2023-02-27T13:14:36.366Z,100825.94
2023-02-27T13:17:43.841Z,100826.09
2023-02-27T13:20:57.935Z,100828.00
2023-02-27T13:24:16.207Z,100834.06
2023-02-27T13:27:19.369Z,100831.25
2023-02-27T13:30:24.524Z,100838.06
2023-02-27T13:33:34.079Z,100837.13
2023-02-27T13:36:43.287Z,100839.56
2023-02-27T13:39:53.268Z,100843.41
2023-02-27T13:43:01.038Z,100837.34
2023-02-27T13:46:22.674Z,100834.25
2023-02-27T13:49:29.926Z,100844.91
2023-02-27T13:52:39.534Z,100842.31
2023-02-27T13:55:44.956Z,100842.03
2023-02-27T13:58:48.225Z,100842.03
2023-02-27T14:02:14.101Z,100842.16
2023-02-27T14:05:18.280Z,100840.03
2023-02-27T14:08:25.723Z,100840.63
2023-02-27T14:11:35.009Z,100836.00
2023-02-27T14:14:46.201Z,100834.66
2023-02-27T14:17:54.405Z,100830.31
2023-02-27T14:21:00.364Z,100833.09
2023-02-27T14:24:03.301Z,100832.75
2023-02-27T14:27:16.188Z,100829.03
2023-02-27T14:30:36.496Z,100833.09
2023-02-27T14:33:51.026Z,100831.00
2023-02-27T14:37:01.298Z,100828.88
2023-02-27T14:40:12.365Z,100829.81
2023-02-27T14:43:30.915Z,100827.72
2023-02-27T14:46:40.003Z,100842.81
2023-02-27T14:49:43.637Z,100836.28
2023-02-27T14:52:46.226Z,100838.28
2023-02-27T14:55:59.040Z,100847.56
2023-02-27T14:59:04.524Z,100845.69
2023-02-27T15:02:32.044Z,100850.94
2023-02-27T15:05:36.691Z,100855.50
2023-02-27T15:08:45.259Z,100853.87
2023-02-27T15:11:57.439Z,100861.16
2023-02-27T15:15:12.626Z,100862.53
2023-02-27T15:18:17.607Z,100860.03
2023-02-27T15:21:23.948Z,100867.25
2023-02-27T15:24:40.633Z,100883.47
2023-02-27T15:27:53.510Z,100881.56
2023-02-27T15:30:58.800Z,100883.88
2023-02-27T15:34:04.700Z,100886.38
2023-02-27T15:37:07.805Z,100887.63
2023-02-27T15:40:19.119Z,100896.31
2023-02-27T15:43:22.925Z,100900.75
2023-02-27T15:46:32.196Z,100904.09
2023-02-27T15:49:35.223Z,100909.41
2023-02-27T15:52:49.890Z,100914.69
2023-02-27T15:56:01.378Z,100919.44
2023-02-27T15:59:04.791Z,100925.06
2023-02-27T16:02:14.928Z,100925.28
2023-02-27T16:05:24.667Z,100932.25
2023-02-27T16:08:31.246Z,100933.44
2023-02-27T16:11:38.833Z,100925.97
2023-02-27T16:14:43.477Z,100944.28
2023-02-27T16:18:09.400Z,100940.94
2023-02-27T16:21:20.990Z,100950.69
2023-02-27T16:24:32.433Z,100945.03
2023-02-27T16:27:36.498Z,100956.13
2023-02-27T16:30:39.184Z,100965.16
2023-02-27T16:33:44.516Z,100964.44
2023-02-27T16:37:00.957Z,100975.13
2023-02-27T16:40:14.901Z,100977.22
2023-02-27T16:43:21.249Z,100984.06
2023-02-27T16:46:24.944Z,100990.78
2023-02-27T16:49:29.567Z,100997.72
2023-02-27T16:52:35.148Z,100998.59
2023-02-27T16:55:44.514Z,101000.22
2023-02-27T16:58:47.574Z,101000.91
2023-02-27T17:01:50.638Z,101005.09
2023-02-27T17:04:54.563Z,101015.72
2023-02-27T17:07:57.355Z,101016.78
2023-02-27T17:11:04.817Z,101026.13
2023-02-27T17:14:10.309Z,101019.47
2023-02-27T17:17:14.326Z,101027.13
2023-02-27T17:20:17.073Z,101027.94
2023-02-27T17:23:22.820Z,101033.13
2023-02-27T17:26:29.331Z,101033.50
2023-02-27T17:29:34.668Z,101043.28
2023-02-27T17:32:40.247Z,101041.88
2023-02-27T17:35:44.219Z,101046.44
2023-02-27T17:38:50.137Z,101051.06
2023-02-27T17:41:55.802Z,101042.50
2023-02-27T17:44:59.702Z,101038.47
2023-02-27T17:48:02.619Z,101052.53
2023-02-27T17:51:06.540Z,101052.84
2023-02-27T17:54:09.601Z,101058.13
2023-02-27T17:57:14.329Z,101053.00
2023-02-27T18:00:19.548Z,101069.50
2023-02-27T18:03:23.152Z,101077.44
2023-02-27T18:06:26.280Z,101076.59
2023-02-27T18:09:29.074Z,101073.50
2023-02-27T18:12:39.521Z,101085.66
2023-02-27T18:15:42.229Z,101083.28
2023-02-27T18:18:47.641Z,101080.03
2023-02-27T18:21:53.700Z,101084.53
2023-02-27T18:25:00.593Z,101083.78
2023-02-27T18:28:05.616Z,101094.84
2023-02-27T18:31:20.388Z,101096.00
2023-02-27T18:34:25.157Z,101109.19
2023-02-27T18:37:33.567Z,101115.84
2023-02-27T18:40:41.337Z,101104.13
2023-02-27T18:43:48.014Z,101100.97
2023-02-27T18:46:51.736Z,101111.41
2023-02-27T18:49:59.008Z,101118.47
2023-02-27T18:53:02.612Z,101127.84
2023-02-27T18:56:10.853Z,101126.28
2023-02-27T18:59:14.507Z,101141.19
2023-02-27T19:02:20.096Z,101140.31
2023-02-27T19:05:25.518Z,101144.81
2023-02-27T19:08:32.303Z,101147.41
2023-02-27T19:11:35.899Z,101165.66
2023-02-27T19:14:40.739Z,101163.25
2023-02-27T19:17:44.449Z,101171.19
2023-02-27T19:20:48.414Z,101172.97
2023-02-27T19:23:52.026Z,101179.06
2023-02-27T19:26:58.237Z,101183.34
2023-02-27T19:30:06.338Z,101191.09
2023-02-27T19:33:13.930Z,101198.94
2023-02-27T19:36:18.984Z,101196.50
2023-02-27T19:39:25.136Z,101199.16
2023-02-27T19:42:30.600Z,101200.13
2023-02-27T19:45:39.816Z,101197.69
2023-02-27T19:48:53.965Z,101202.81
2023-02-27T19:51:56.763Z,101191.69
2023-02-27T19:55:01.365Z,101191.53
2023-02-27T19:58:06.828Z,101200.19
2023-02-27T20:01:15.055Z,101206.09
2023-02-27T20:04:24.762Z,101207.88
2023-02-27T20:07:30.755Z,101229.09
2023-02-27T20:10:35.848Z,101236.03
2023-02-27T20:13:41.532Z,101236.25
2023-02-27T20:16:52.177Z,101243.09
2023-02-27T20:19:57.962Z,101247.47
2023-02-27T20:23:10.476Z,101237.13
2023-02-27T20:26:20.585Z,101248.22
2023-02-27T20:29:30.382Z,101237.25
2023-02-27T20:32:36.462Z,101244.84
2023-02-27T20:35:43.503Z,101250.91
2023-02-27T20:38:49.952Z,101244.19
2023-02-27T20:41:53.904Z,101255.31
2023-02-27T20:44:57.714Z,101260.44
2023-02-27T20:48:00.164Z,101268.28
2023-02-27T20:51:13.021Z,101279.50
2023-02-27T20:54:21.441Z,101280.34
2023-02-27T20:57:26.488Z,101268.38
2023-02-27T21:00:38.053Z,101267.53
2023-02-27T21:03:42.392Z,101270.94
2023-02-27T21:06:47.828Z,101265.16
2023-02-27T21:09:52.864Z,101265.16
2023-02-27T21:12:59.157Z,101277.97
2023-02-27T21:16:05.655Z,101283.97
2023-02-27T21:19:13.747Z,101286.59
2023-02-27T21:26:18.737Z,101281.56
2023-02-27T21:29:22.272Z,101295.44
2023-02-27T21:32:25.647Z,101300.56
2023-02-27T21:35:29.089Z,101285.06
2023-02-27T21:38:32.563Z,101282.47
2023-02-27T21:41:43.583Z,101282.66
2023-02-27T21:44:53.299Z,101297.31
2023-02-27T21:47:57.816Z,101294.75
2023-02-27T21:51:05.845Z,101293.00
2023-02-27T21:54:15.283Z,101302.41
2023-02-27T21:57:24.836Z,101304.09
2023-02-27T22:00:34.798Z,101304.09
2023-02-27T22:03:39.074Z,101299.69
2023-02-27T22:06:41.853Z,101281.75
2023-02-27T22:09:56.971Z,101280.94
2023-02-27T22:13:02.796Z,101283.38
2023-02-27T22:16:09.735Z,101284.19
2023-02-27T22:19:15.046Z,101272.06
2023-02-27T22:22:18.412Z,101278.00
2023-02-27T22:25:28.081Z,101283.12
2023-02-27T22:28:33.401Z,101276.31
2023-02-27T22:31:39.219Z,101284.03
2023-02-27T22:34:43.274Z,101281.44
2023-02-27T22:38:04.690Z,101278.72
2023-02-27T22:41:14.957Z,101277.81
2023-02-27T22:44:20.714Z,101281.34
2023-02-27T22:47:28.638Z,101283.91
2023-02-27T22:50:30.992Z,101283.84
2023-02-27T22:53:45.308Z,101294.09
2023-02-27T22:56:58.015Z,101289.88
2023-02-27T23:00:16.929Z,101288.09
2023-02-27T23:03:20.830Z,101295.75
2023-02-27T23:06:39.091Z,101286.38
2023-02-27T23:09:49.294Z,101297.50
2023-02-27T23:13:04.510Z,101288.88
2023-02-27T23:16:14.058Z,101301.75
2023-02-27T23:19:18.610Z,101293.06
2023-02-27T23:22:29.675Z,101297.31
2023-02-27T23:25:40.366Z,101291.22
2023-02-27T23:28:58.079Z,101286.16
2023-02-27T23:32:12.697Z,101293.97
2023-02-27T23:35:20.425Z,101292.19
2023-02-27T23:38:25.620Z,101291.28
2023-02-27T23:41:31.307Z,101301.56
2023-02-27T23:44:55.812Z,101298.88
2023-02-27T23:47:59.417Z,101305.69
2023-02-27T23:51:08.033Z,101300.59
2023-02-27T23:54:14.838Z,101301.37
2023-02-27T23:57:27.927Z,101308.31
